Time;durP1;ratioP1;P1;durP2;ratioP2;P2;SDS_P1;SDS_P2;PMS_P1;PMS_P2;Temp;Humidity;BMP_temperature;BMP_pressure;BME280_temperature;BME280_humidity;BME280_pressure;Samples;Min_cycle;Max_cycle;Signal;HPM_P1;HPM_P2
2023/01/29 00:00:00;;;;;;;3.4;3.3;;;;;;;0.1;100.0;102830;;;;
2023/01/29 00:01:02;;;;;;;3.4;3.3;;;;;;;0.1;100.0;102830;;;;
2023/01/29 00:02:00;;;;;;;3.4;3.3;;;;;;;0.1;100.0;102830;;;;
2023/01/29 00:03:00;;;;;;;3.4;3.3;;;;;;;0.0;100.0;102830;;;;
2023/01/29 00:04:00;;;;;;;3.4;3.3;;;;;;;0.0;100.0;102830;;;;
2023/01/29 00:05:10;;;;;;;3.4;3.3;;;;;;;-0.0;100.0;102820;;;;
2023/01/29 00:06:05;;;;;;;3.4;3.3;;;;;;;-0.0;100.0;102820;;;;
2023/01/29 00:07:00;;;;;;;3.4;3.3;;;;;;;-0.0;100.0;102820;;;;
2023/01/29 00:08:00;;;;;;;3.4;3.3;;;;;;;-0.0;100.0;102820;;;;
2023/01/29 00:09:00;;;;;;;3.4;3.3;;;;;;;-0.1;100.0;102820;;;;
2023/01/29 00:10:00;;;;;;;3.4;3.3;;;;;;;-0.1;100.0;102820;;;;
2023/01/29 00:11:01;;;;;;;3.4;3.3;;;;;;;-0.2;100.0;102810;;;;
2023/01/29 00:12:00;;;;;;;3.4;3.3;;;;;;;-0.2;100.0;102810;;;;
2023/01/29 00:13:00;;;;;;;3.4;3.3;;;;;;;-0.2;100.0;102820;;;;
2023/01/29 00:14:00;;;;;;;3.8;3.7;;;;;;;-0.2;100.0;102820;;;;
2023/01/29 00:15:00;;;;;;;3.8;3.7;;;;;;;-0.2;100.0;102820;;;;
2023/01/29 00:16:00;;;;;;;3.8;3.7;;;;;;;-0.2;100.0;102820;;;;
2023/01/29 00:17:00;;;;;;;3.8;3.7;;;;;;;-0.3;100.0;102820;;;;
2023/01/29 00:18:00;;;;;;;3.8;3.7;;;;;;;-0.3;100.0;102820;;;;
2023/01/29 00:19:01;;;;;;;3.8;3.7;;;;;;;-0.3;100.0;102810;;;;
2023/01/29 00:20:00;;;;;;;3.8;3.7;;;;;;;-0.3;100.0;102810;;;;
2023/01/29 00:21:00;;;;;;;3.8;3.7;;;;;;;-0.4;100.0;102810;;;;
2023/01/29 00:22:00;;;;;;;3.8;3.7;;;;;;;-0.4;100.0;102810;;;;
2023/01/29 00:23:00;;;;;;;3.8;3.7;;;;;;;-0.4;100.0;102810;;;;
2023/01/29 00:24:00;;;;;;;3.8;3.7;;;;;;;-0.4;100.0;102810;;;;
2023/01/29 00:25:00;;;;;;;3.8;3.7;;;;;;;-0.4;100.0;102810;;;;
2023/01/29 00:26:00;;;;;;;3.8;3.7;;;;;;;-0.4;100.0;102810;;;;
2023/01/29 00:27:00;;;;;;;3.8;3.7;;;;;;;-0.4;100.0;102800;;;;
2023/01/29 00:28:00;;;;;;;3.8;3.7;;;;;;;-0.4;100.0;102800;;;;
2023/01/29 00:29:01;;;;;;;3.8;3.7;;;;;;;-0.4;100.0;102800;;;;
2023/01/29 00:30:08;;;;;;;3.8;3.7;;;;;;;-0.4;100.0;102800;;;;
2023/01/29 00:31:10;;;;;;;3.8;3.7;;;;;;;-0.4;100.0;102800;;;;
2023/01/29 00:32:00;;;;;;;3.8;3.7;;;;;;;-0.4;100.0;102800;;;;
2023/01/29 00:33:00;;;;;;;3.8;3.7;;;;;;;-0.5;100.0;102800;;;;
2023/01/29 00:34:00;;;;;;;3.7;3.6;;;;;;;-0.5;100.0;102800;;;;
2023/01/29 00:35:00;;;;;;;3.7;3.6;;;;;;;-0.5;100.0;102800;;;;
2023/01/29 00:36:02;;;;;;;3.7;3.6;;;;;;;-0.5;100.0;102800;;;;
2023/01/29 00:37:07;;;;;;;3.7;3.6;;;;;;;-0.5;100.0;102800;;;;
2023/01/29 00:38:00;;;;;;;3.7;3.6;;;;;;;-0.5;100.0;102800;;;;
2023/01/29 00:39:01;;;;;;;3.7;3.6;;;;;;;-0.6;100.0;102800;;;;
2023/01/29 00:40:00;;;;;;;3.7;3.6;;;;;;;-0.6;100.0;102800;;;;
2023/01/29 00:45:00;;;;;;;3.7;3.6;;;;;;;-0.6;100.0;102790;;;;
2023/01/29 00:46:00;;;;;;;3.7;3.6;;;;;;;-0.6;100.0;102790;;;;
2023/01/29 00:47:00;;;;;;;3.7;3.6;;;;;;;-0.6;100.0;102780;;;;
2023/01/29 00:48:00;;;;;;;3.7;3.6;;;;;;;-0.6;100.0;102780;;;;
2023/01/29 00:49:01;;;;;;;3.7;3.6;;;;;;;-0.6;100.0;102770;;;;
2023/01/29 00:50:01;;;;;;;3.7;3.6;;;;;;;-0.6;100.0;102770;;;;
2023/01/29 00:51:00;;;;;;;3.7;3.6;;;;;;;-0.6;100.0;102770;;;;
2023/01/29 00:53:00;;;;;;;3.6;3.5;;;;;;;-0.6;100.0;102770;;;;
2023/01/29 00:54:00;;;;;;;3.6;3.5;;;;;;;-0.6;100.0;102770;;;;
2023/01/29 00:55:00;;;;;;;3.6;3.5;;;;;;;-0.6;100.0;102760;;;;
2023/01/29 00:56:00;;;;;;;3.6;3.5;;;;;;;-0.6;100.0;102760;;;;
2023/01/29 00:57:00;;;;;;;3.6;3.5;;;;;;;-0.6;100.0;102760;;;;
2023/01/29 00:58:00;;;;;;;3.6;3.5;;;;;;;-0.6;100.0;102760;;;;
2023/01/29 00:59:00;;;;;;;3.6;3.5;;;;;;;-0.6;100.0;102760;;;;
2023/01/29 01:00:01;;;;;;;3.6;3.5;;;;;;;-0.6;100.0;102760;;;;
2023/01/29 01:01:01;;;;;;;3.6;3.5;;;;;;;-0.7;100.0;102760;;;;
2023/01/29 01:03:07;;;;;;;3.6;3.5;;;;;;;-0.7;100.0;102760;;;;
2023/01/29 01:04:00;;;;;;;3.6;3.5;;;;;;;-0.7;100.0;102760;;;;
2023/01/29 01:05:02;;;;;;;3.6;3.5;;;;;;;-0.7;100.0;102760;;;;
2023/01/29 01:06:02;;;;;;;3.6;3.5;;;;;;;-0.7;100.0;102760;;;;
2023/01/29 01:07:00;;;;;;;3.6;3.5;;;;;;;-0.8;100.0;102760;;;;
2023/01/29 01:08:00;;;;;;;3.6;3.5;;;;;;;-0.8;100.0;102760;;;;
2023/01/29 01:11:01;;;;;;;3.6;3.5;;;;;;;-0.8;100.0;102770;;;;
2023/01/29 01:12:00;;;;;;;3.6;3.5;;;;;;;-0.8;100.0;102770;;;;
2023/01/29 01:13:01;;;;;;;4.1;4.0;;;;;;;-0.9;100.0;102770;;;;
2023/01/29 01:14:01;;;;;;;4.1;4.0;;;;;;;-0.9;100.0;102770;;;;
2023/01/29 01:15:00;;;;;;;4.1;4.0;;;;;;;-0.9;100.0;102770;;;;
2023/01/29 01:16:00;;;;;;;4.1;4.0;;;;;;;-0.9;100.0;102770;;;;
2023/01/29 01:17:00;;;;;;;4.1;4.0;;;;;;;-0.9;100.0;102770;;;;
2023/01/29 01:18:01;;;;;;;4.1;4.0;;;;;;;-0.9;100.0;102770;;;;
2023/01/29 01:19:01;;;;;;;4.1;4.0;;;;;;;-0.9;100.0;102770;;;;
2023/01/29 01:20:00;;;;;;;4.1;4.0;;;;;;;-0.9;100.0;102770;;;;
2023/01/29 01:21:00;;;;;;;4.1;4.0;;;;;;;-0.8;100.0;102760;;;;
2023/01/29 01:22:00;;;;;;;4.1;4.0;;;;;;;-0.8;100.0;102760;;;;
2023/01/29 01:23:00;;;;;;;4.1;4.0;;;;;;;-0.8;100.0;102760;;;;
2023/01/29 01:24:00;;;;;;;4.1;4.0;;;;;;;-0.8;100.0;102760;;;;
2023/01/29 01:25:00;;;;;;;4.1;4.0;;;;;;;-0.9;100.0;102770;;;;
2023/01/29 01:26:00;;;;;;;4.1;4.0;;;;;;;-0.9;100.0;102770;;;;
2023/01/29 01:27:00;;;;;;;4.1;4.0;;;;;;;-1.0;100.0;102770;;;;
2023/01/29 01:28:00;;;;;;;4.1;4.0;;;;;;;-1.0;100.0;102770;;;;
2023/01/29 01:29:00;;;;;;;4.1;4.0;;;;;;;-1.0;100.0;102780;;;;
2023/01/29 01:30:00;;;;;;;4.1;4.0;;;;;;;-1.0;100.0;102780;;;;
2023/01/29 01:31:07;;;;;;;4.1;4.0;;;;;;;-1.0;100.0;102770;;;;
2023/01/29 01:32:00;;;;;;;4.1;4.0;;;;;;;-1.0;100.0;102770;;;;
2023/01/29 01:33:00;;;;;;;4.1;4.0;;;;;;;-0.9;100.0;102770;;;;
2023/01/29 01:34:00;;;;;;;4.1;4.0;;;;;;;-0.9;100.0;102770;;;;
2023/01/29 01:35:00;;;;;;;4.1;4.0;;;;;;;-0.9;100.0;102770;;;;
2023/01/29 01:36:00;;;;;;;4.1;4.0;;;;;;;-0.9;100.0;102770;;;;
2023/01/29 01:37:00;;;;;;;4.1;4.0;;;;;;;-1.0;100.0;102780;;;;
2023/01/29 01:38:00;;;;;;;4.1;4.0;;;;;;;-1.0;100.0;102780;;;;
2023/01/29 01:39:00;;;;;;;4.1;4.0;;;;;;;-1.0;100.0;102770;;;;
2023/01/29 01:40:00;;;;;;;4.1;4.0;;;;;;;-1.0;100.0;102770;;;;
2023/01/29 01:41:00;;;;;;;4.1;4.0;;;;;;;-0.9;100.0;102770;;;;
2023/01/29 01:42:01;;;;;;;4.1;4.0;;;;;;;-0.9;100.0;102770;;;;
2023/01/29 01:43:00;;;;;;;4.1;4.0;;;;;;;-0.9;100.0;102770;;;;
2023/01/29 01:44:01;;;;;;;4.1;4.0;;;;;;;-0.9;100.0;102770;;;;
2023/01/29 01:45:03;;;;;;;4.1;4.0;;;;;;;-1.0;100.0;102760;;;;
2023/01/29 01:46:00;;;;;;;4.1;4.0;;;;;;;-1.0;100.0;102760;;;;
2023/01/29 01:47:00;;;;;;;4.1;4.0;;;;;;;-0.9;100.0;102770;;;;
2023/01/29 01:48:01;;;;;;;4.1;4.0;;;;;;;-0.9;100.0;102770;;;;
2023/01/29 01:49:06;;;;;;;4.1;4.0;;;;;;;-1.0;100.0;102780;;;;
2023/01/29 01:50:07;;;;;;;4.1;4.0;;;;;;;-1.0;100.0;102780;;;;
2023/01/29 01:51:04;;;;;;;4.1;4.0;;;;;;;-1.0;100.0;102770;;;;
2023/01/29 01:52:00;;;;;;;4.1;4.0;;;;;;;-1.0;100.0;102770;;;;
2023/01/29 01:53:03;;;;;;;4.1;4.0;;;;;;;-1.0;100.0;102770;;;;
2023/01/29 01:54:04;;;;;;;4.1;4.0;;;;;;;-1.0;100.0;102770;;;;
2023/01/29 01:55:00;;;;;;;4.1;4.0;;;;;;;-1.0;100.0;102770;;;;
2023/01/29 01:56:02;;;;;;;4.1;4.0;;;;;;;-1.0;100.0;102770;;;;
2023/01/29 01:57:08;;;;;;;4.1;4.0;;;;;;;-1.0;100.0;102770;;;;
2023/01/29 01:58:07;;;;;;;4.1;4.0;;;;;;;-1.0;100.0;102770;;;;
2023/01/29 01:59:00;;;;;;;4.1;4.0;;;;;;;-1.0;100.0;102770;;;;
2023/01/29 02:00:10;;;;;;;4.1;4.0;;;;;;;-1.0;100.0;102770;;;;
2023/01/29 02:01:00;;;;;;;4.1;4.0;;;;;;;-1.0;100.0;102770;;;;
2023/01/29 02:10:09;;;;;;;4.1;4.0;;;;;;;-0.9;100.0;102780;;;;
2023/01/29 02:11:00;;;;;;;4.1;4.0;;;;;;;-0.9;100.0;102790;;;;
2023/01/29 02:12:03;;;;;;;4.1;4.0;;;;;;;-0.9;100.0;102790;;;;
2023/01/29 02:13:00;;;;;;;4.2;4.1;;;;;;;-0.9;100.0;102790;;;;
2023/01/29 02:14:00;;;;;;;4.2;4.1;;;;;;;-0.9;100.0;102790;;;;
2023/01/29 02:15:01;;;;;;;4.2;4.1;;;;;;;-0.8;100.0;102780;;;;
2023/01/29 02:16:00;;;;;;;4.2;4.1;;;;;;;-0.8;100.0;102780;;;;
2023/01/29 02:17:00;;;;;;;4.2;4.1;;;;;;;-0.8;100.0;102790;;;;
2023/01/29 02:18:00;;;;;;;4.2;4.1;;;;;;;-0.8;100.0;102790;;;;
2023/01/29 02:19:00;;;;;;;4.2;4.1;;;;;;;-0.8;100.0;102790;;;;
2023/01/29 02:20:10;;;;;;;4.2;4.1;;;;;;;-0.8;100.0;102790;;;;
2023/01/29 02:21:07;;;;;;;4.2;4.1;;;;;;;-0.7;100.0;102780;;;;
2023/01/29 02:22:01;;;;;;;4.2;4.1;;;;;;;-0.7;100.0;102780;;;;
2023/01/29 02:23:07;;;;;;;4.2;4.1;;;;;;;-0.7;100.0;102790;;;;
2023/01/29 02:24:10;;;;;;;4.2;4.1;;;;;;;-0.7;100.0;102790;;;;
2023/01/29 02:25:08;;;;;;;4.2;4.1;;;;;;;-0.6;100.0;102790;;;;
2023/01/29 02:26:00;;;;;;;4.2;4.1;;;;;;;-0.6;100.0;102790;;;;
2023/01/29 02:27:10;;;;;;;4.2;4.1;;;;;;;-0.8;100.0;102790;;;;
2023/01/29 02:28:10;;;;;;;4.2;4.1;;;;;;;-0.8;100.0;102790;;;;
2023/01/29 02:29:21;;;;;;;4.2;4.1;;;;;;;-0.7;100.0;102800;;;;
2023/01/29 02:30:04;;;;;;;4.2;4.1;;;;;;;-0.7;100.0;102800;;;;
2023/01/29 02:31:10;;;;;;;4.2;4.1;;;;;;;-0.6;100.0;102790;;;;
2023/01/29 02:32:08;;;;;;;4.2;4.1;;;;;;;-0.6;100.0;102790;;;;
2023/01/29 02:33:08;;;;;;;3.6;3.5;;;;;;;-0.6;100.0;102790;;;;
2023/01/29 02:34:07;;;;;;;3.6;3.5;;;;;;;-0.6;100.0;102790;;;;
2023/01/29 02:36:10;;;;;;;3.6;3.5;;;;;;;-0.6;100.0;102800;;;;
2023/01/29 02:37:05;;;;;;;3.6;3.5;;;;;;;-0.5;100.0;102790;;;;
2023/01/29 02:38:10;;;;;;;3.6;3.5;;;;;;;-0.5;100.0;102790;;;;
2023/01/29 02:39:10;;;;;;;3.6;3.5;;;;;;;-0.5;100.0;102780;;;;
2023/01/29 02:40:10;;;;;;;3.6;3.5;;;;;;;-0.5;100.0;102780;;;;
2023/01/29 02:41:02;;;;;;;3.6;3.5;;;;;;;-0.4;100.0;102780;;;;
2023/01/29 02:42:05;;;;;;;3.6;3.5;;;;;;;-0.4;100.0;102780;;;;
2023/01/29 02:43:01;;;;;;;3.6;3.5;;;;;;;-0.5;100.0;102780;;;;
2023/01/29 02:44:09;;;;;;;3.6;3.5;;;;;;;-0.5;100.0;102780;;;;
2023/01/29 02:45:00;;;;;;;3.6;3.5;;;;;;;-0.5;100.0;102780;;;;
2023/01/29 02:46:07;;;;;;;3.6;3.5;;;;;;;-0.5;100.0;102780;;;;
2023/01/29 02:47:03;;;;;;;3.6;3.5;;;;;;;-0.4;100.0;102770;;;;
2023/01/29 02:48:01;;;;;;;3.6;3.5;;;;;;;-0.4;100.0;102770;;;;
2023/01/29 02:49:10;;;;;;;3.6;3.5;;;;;;;-0.4;100.0;102780;;;;
2023/01/29 02:50:09;;;;;;;3.6;3.5;;;;;;;-0.4;100.0;102780;;;;
2023/01/29 02:51:04;;;;;;;3.6;3.5;;;;;;;-0.5;100.0;102780;;;;
2023/01/29 02:52:10;;;;;;;3.6;3.5;;;;;;;-0.5;100.0;102780;;;;
2023/01/29 02:53:06;;;;;;;4.0;3.9;;;;;;;-0.4;100.0;102780;;;;
2023/01/29 02:54:05;;;;;;;4.0;3.9;;;;;;;-0.4;100.0;102780;;;;
2023/01/29 02:55:10;;;;;;;4.0;3.9;;;;;;;-0.4;100.0;102780;;;;
2023/01/29 02:56:07;;;;;;;4.0;3.9;;;;;;;-0.4;100.0;102780;;;;
2023/01/29 02:57:03;;;;;;;4.0;3.9;;;;;;;-0.3;100.0;102780;;;;
2023/01/29 02:58:04;;;;;;;4.0;3.9;;;;;;;-0.3;100.0;102780;;;;
2023/01/29 02:59:05;;;;;;;4.0;3.9;;;;;;;-0.3;100.0;102770;;;;
2023/01/29 03:00:05;;;;;;;4.0;3.9;;;;;;;-0.3;100.0;102770;;;;
2023/01/29 03:01:06;;;;;;;4.0;3.9;;;;;;;-0.2;100.0;102770;;;;
2023/01/29 03:02:04;;;;;;;4.0;3.9;;;;;;;-0.2;100.0;102770;;;;
2023/01/29 03:03:10;;;;;;;4.0;3.9;;;;;;;-0.3;100.0;102780;;;;
2023/01/29 03:04:03;;;;;;;4.0;3.9;;;;;;;-0.3;100.0;102780;;;;
2023/01/29 03:05:02;;;;;;;4.0;3.9;;;;;;;-0.2;100.0;102780;;;;
2023/01/29 03:06:01;;;;;;;4.0;3.9;;;;;;;-0.2;100.0;102780;;;;
2023/01/29 03:07:02;;;;;;;4.0;3.9;;;;;;;-0.2;100.0;102780;;;;
2023/01/29 03:08:05;;;;;;;4.0;3.9;;;;;;;-0.2;100.0;102780;;;;
2023/01/29 03:09:03;;;;;;;4.0;3.9;;;;;;;-0.3;100.0;102770;;;;
2023/01/29 03:10:01;;;;;;;4.0;3.9;;;;;;;-0.3;100.0;102770;;;;
2023/01/29 03:11:01;;;;;;;4.0;3.9;;;;;;;-0.2;100.0;102770;;;;
2023/01/29 03:12:17;;;;;;;4.0;3.9;;;;;;;-0.2;100.0;102770;;;;
2023/01/29 03:13:04;;;;;;;4.0;3.9;;;;;;;-0.1;100.0;102780;;;;
2023/01/29 03:14:06;;;;;;;4.0;3.9;;;;;;;-0.1;100.0;102780;;;;
2023/01/29 03:15:11;;;;;;;4.0;3.9;;;;;;;-0.1;100.0;102780;;;;
2023/01/29 03:16:03;;;;;;;4.0;3.9;;;;;;;-0.1;100.0;102780;;;;
2023/01/29 03:17:01;;;;;;;4.0;3.9;;;;;;;-0.1;100.0;102770;;;;
2023/01/29 03:18:05;;;;;;;4.0;3.9;;;;;;;-0.1;100.0;102770;;;;
2023/01/29 03:19:05;;;;;;;4.0;3.9;;;;;;;-0.1;100.0;102780;;;;
2023/01/29 03:20:02;;;;;;;4.0;3.9;;;;;;;-0.1;100.0;102780;;;;
2023/01/29 03:21:48;;;;;;;4.0;3.9;;;;;;;-0.1;100.0;102780;;;;
2023/01/29 03:22:03;;;;;;;4.0;3.9;;;;;;;-0.1;100.0;102780;;;;
2023/01/29 03:23:02;;;;;;;4.0;3.9;;;;;;;-0.1;100.0;102780;;;;
2023/01/29 03:32:05;;;;;;;4.0;3.9;;;;;;;-0.0;100.0;102770;;;;
2023/01/29 03:33:03;;;;;;;4.0;3.9;;;;;;;0.1;100.0;102780;;;;
2023/01/29 03:34:06;;;;;;;4.0;3.9;;;;;;;0.1;100.0;102780;;;;
2023/01/29 03:35:03;;;;;;;4.0;3.9;;;;;;;-0.1;100.0;102780;;;;
2023/01/29 03:36:07;;;;;;;4.0;3.9;;;;;;;-0.1;100.0;102780;;;;
2023/01/29 03:37:00;;;;;;;4.0;3.9;;;;;;;-0.1;100.0;102780;;;;
2023/01/29 03:38:01;;;;;;;4.0;3.9;;;;;;;-0.1;100.0;102780;;;;
2023/01/29 03:39:00;;;;;;;4.0;3.9;;;;;;;0.0;100.0;102770;;;;
2023/01/29 03:40:01;;;;;;;4.0;3.9;;;;;;;0.0;100.0;102770;;;;
2023/01/29 03:41:07;;;;;;;4.0;3.9;;;;;;;0.1;100.0;102770;;;;
2023/01/29 03:42:10;;;;;;;4.0;3.9;;;;;;;0.1;100.0;102770;;;;
2023/01/29 03:43:10;;;;;;;4.0;3.9;;;;;;;0.1;100.0;102760;;;;
2023/01/29 03:44:09;;;;;;;4.0;3.9;;;;;;;0.1;100.0;102760;;;;
2023/01/29 03:45:01;;;;;;;4.0;3.9;;;;;;;0.1;100.0;102760;;;;
2023/01/29 03:46:13;;;;;;;4.0;3.9;;;;;;;0.1;100.0;102760;;;;
2023/01/29 03:47:12;;;;;;;4.0;3.9;;;;;;;0.0;100.0;102750;;;;
2023/01/29 03:48:11;;;;;;;4.0;3.9;;;;;;;0.0;100.0;102750;;;;
2023/01/29 03:49:07;;;;;;;4.0;3.9;;;;;;;0.1;100.0;102760;;;;
2023/01/29 03:50:10;;;;;;;4.0;3.9;;;;;;;0.1;100.0;102760;;;;
2023/01/29 03:51:00;;;;;;;4.0;3.9;;;;;;;0.0;100.0;102760;;;;
2023/01/29 03:52:10;;;;;;;3.9;3.8;;;;;;;0.0;100.0;102760;;;;
2023/01/29 03:53:09;;;;;;;3.9;3.8;;;;;;;0.1;100.0;102760;;;;
2023/01/29 03:54:06;;;;;;;3.9;3.8;;;;;;;0.1;100.0;102760;;;;
2023/01/29 03:55:00;;;;;;;3.9;3.8;;;;;;;0.0;100.0;102760;;;;
2023/01/29 03:56:06;;;;;;;3.9;3.8;;;;;;;0.0;100.0;102760;;;;
2023/01/29 03:57:04;;;;;;;3.9;3.8;;;;;;;0.2;100.0;102750;;;;
2023/01/29 03:58:10;;;;;;;3.9;3.8;;;;;;;0.2;100.0;102750;;;;
2023/01/29 03:59:10;;;;;;;3.9;3.8;;;;;;;0.2;100.0;102750;;;;
2023/01/29 04:00:10;;;;;;;3.9;3.8;;;;;;;0.2;100.0;102750;;;;
2023/01/29 04:01:03;;;;;;;3.9;3.8;;;;;;;0.2;100.0;102750;;;;
2023/01/29 04:02:03;;;;;;;3.9;3.8;;;;;;;0.2;100.0;102750;;;;
2023/01/29 04:03:08;;;;;;;3.9;3.8;;;;;;;0.2;100.0;102740;;;;
2023/01/29 04:04:10;;;;;;;3.9;3.8;;;;;;;0.2;100.0;102740;;;;
2023/01/29 04:05:04;;;;;;;3.9;3.8;;;;;;;0.2;100.0;102730;;;;
2023/01/29 04:06:08;;;;;;;3.9;3.8;;;;;;;0.2;100.0;102730;;;;
2023/01/29 04:07:03;;;;;;;3.9;3.8;;;;;;;0.2;100.0;102740;;;;
2023/01/29 04:08:04;;;;;;;3.9;3.8;;;;;;;0.2;100.0;102740;;;;
2023/01/29 04:09:09;;;;;;;3.9;3.8;;;;;;;0.1;100.0;102730;;;;
2023/01/29 04:10:03;;;;;;;3.9;3.8;;;;;;;0.1;100.0;102730;;;;
2023/01/29 04:11:02;;;;;;;3.9;3.8;;;;;;;0.1;100.0;102730;;;;
2023/01/29 04:12:03;;;;;;;3.3;3.2;;;;;;;0.1;100.0;102730;;;;
2023/01/29 04:13:03;;;;;;;3.3;3.2;;;;;;;0.2;100.0;102730;;;;
2023/01/29 04:14:01;;;;;;;3.3;3.2;;;;;;;0.2;100.0;102730;;;;
2023/01/29 04:15:00;;;;;;;3.3;3.2;;;;;;;0.2;100.0;102730;;;;
2023/01/29 04:16:01;;;;;;;3.3;3.2;;;;;;;0.2;100.0;102730;;;;
2023/01/29 04:17:03;;;;;;;3.3;3.2;;;;;;;0.2;100.0;102720;;;;
2023/01/29 04:18:00;;;;;;;3.3;3.2;;;;;;;0.2;100.0;102720;;;;
2023/01/29 04:19:00;;;;;;;3.3;3.2;;;;;;;0.1;100.0;102730;;;;
2023/01/29 04:20:00;;;;;;;3.3;3.2;;;;;;;0.1;100.0;102730;;;;
2023/01/29 04:21:00;;;;;;;3.3;3.2;;;;;;;0.1;100.0;102730;;;;
2023/01/29 04:22:10;;;;;;;3.3;3.2;;;;;;;0.1;100.0;102730;;;;
2023/01/29 04:23:00;;;;;;;3.3;3.2;;;;;;;0.1;100.0;102730;;;;
2023/01/29 04:24:00;;;;;;;3.3;3.2;;;;;;;0.1;100.0;102730;;;;
2023/01/29 04:25:07;;;;;;;3.3;3.2;;;;;;;0.2;100.0;102730;;;;
2023/01/29 04:26:10;;;;;;;3.3;3.2;;;;;;;0.2;100.0;102730;;;;
2023/01/29 04:27:06;;;;;;;3.3;3.2;;;;;;;0.1;100.0;102720;;;;
2023/01/29 04:28:05;;;;;;;3.3;3.2;;;;;;;0.1;100.0;102720;;;;
2023/01/29 04:29:10;;;;;;;3.3;3.2;;;;;;;0.1;100.0;102720;;;;
2023/01/29 04:30:09;;;;;;;3.3;3.2;;;;;;;0.1;100.0;102720;;;;
2023/01/29 04:31:05;;;;;;;3.3;3.2;;;;;;;0.2;100.0;102720;;;;
2023/01/29 04:32:03;;;;;;;3.5;3.4;;;;;;;0.2;100.0;102720;;;;
2023/01/29 04:33:04;;;;;;;3.5;3.4;;;;;;;0.2;100.0;102720;;;;
2023/01/29 04:34:10;;;;;;;3.5;3.4;;;;;;;0.2;100.0;102720;;;;
2023/01/29 04:35:09;;;;;;;3.5;3.4;;;;;;;0.2;100.0;102720;;;;
2023/01/29 04:36:00;;;;;;;3.5;3.4;;;;;;;0.2;100.0;102720;;;;
2023/01/29 04:37:09;;;;;;;3.5;3.4;;;;;;;0.2;100.0;102720;;;;
2023/01/29 04:38:06;;;;;;;3.5;3.4;;;;;;;0.2;100.0;102720;;;;
2023/01/29 04:39:12;;;;;;;3.5;3.4;;;;;;;0.1;100.0;102710;;;;
2023/01/29 04:40:08;;;;;;;3.5;3.4;;;;;;;0.1;100.0;102710;;;;
2023/01/29 04:41:10;;;;;;;3.5;3.4;;;;;;;0.1;100.0;102710;;;;
2023/01/29 04:42:00;;;;;;;3.5;3.4;;;;;;;0.1;100.0;102710;;;;
2023/01/29 04:43:00;;;;;;;3.5;3.4;;;;;;;0.1;100.0;102690;;;;
2023/01/29 04:44:10;;;;;;;3.5;3.4;;;;;;;0.1;100.0;102690;;;;
2023/01/29 04:45:10;;;;;;;3.5;3.4;;;;;;;0.1;100.0;102690;;;;
2023/01/29 04:46:10;;;;;;;3.5;3.4;;;;;;;0.1;100.0;102690;;;;
2023/01/29 04:47:01;;;;;;;3.5;3.4;;;;;;;0.2;100.0;102690;;;;
2023/01/29 04:48:00;;;;;;;3.5;3.4;;;;;;;0.2;100.0;102690;;;;
2023/01/29 04:49:09;;;;;;;3.5;3.4;;;;;;;0.1;100.0;102690;;;;
2023/01/29 04:50:07;;;;;;;3.5;3.4;;;;;;;0.1;100.0;102690;;;;
2023/01/29 04:51:09;;;;;;;3.5;3.4;;;;;;;0.1;100.0;102680;;;;
2023/01/29 04:52:06;;;;;;;3.6;3.5;;;;;;;0.1;100.0;102680;;;;
2023/01/29 04:53:10;;;;;;;3.6;3.5;;;;;;;0.1;100.0;102680;;;;
2023/01/29 04:54:05;;;;;;;3.6;3.5;;;;;;;0.1;100.0;102680;;;;
2023/01/29 04:55:08;;;;;;;3.6;3.5;;;;;;;0.2;100.0;102680;;;;
2023/01/29 04:56:06;;;;;;;3.6;3.5;;;;;;;0.2;100.0;102680;;;;
2023/01/29 04:57:10;;;;;;;3.6;3.5;;;;;;;0.2;100.0;102670;;;;
2023/01/29 04:58:03;;;;;;;3.6;3.5;;;;;;;0.2;100.0;102670;;;;
2023/01/29 04:59:04;;;;;;;3.6;3.5;;;;;;;0.1;100.0;102670;;;;
2023/01/29 05:00:08;;;;;;;3.6;3.5;;;;;;;0.1;100.0;102670;;;;
2023/01/29 05:01:03;;;;;;;3.6;3.5;;;;;;;0.2;100.0;102670;;;;
2023/01/29 05:02:01;;;;;;;3.6;3.5;;;;;;;0.2;100.0;102670;;;;
2023/01/29 05:03:00;;;;;;;3.6;3.5;;;;;;;0.1;100.0;102670;;;;
2023/01/29 05:04:02;;;;;;;3.6;3.5;;;;;;;0.1;100.0;102670;;;;
2023/01/29 05:05:00;;;;;;;3.6;3.5;;;;;;;0.2;100.0;102660;;;;
2023/01/29 05:06:01;;;;;;;3.6;3.5;;;;;;;0.2;100.0;102660;;;;
2023/01/29 05:07:03;;;;;;;3.6;3.5;;;;;;;0.2;100.0;102680;;;;
2023/01/29 05:08:01;;;;;;;3.6;3.5;;;;;;;0.2;100.0;102680;;;;
2023/01/29 05:09:00;;;;;;;3.6;3.5;;;;;;;0.1;100.0;102680;;;;
2023/01/29 05:10:01;;;;;;;3.6;3.5;;;;;;;0.1;100.0;102680;;;;
2023/01/29 05:11:00;;;;;;;3.6;3.5;;;;;;;0.2;100.0;102680;;;;
2023/01/29 05:12:01;;;;;;;3.3;3.2;;;;;;;0.2;100.0;102680;;;;
2023/01/29 05:13:02;;;;;;;3.3;3.2;;;;;;;0.2;100.0;102680;;;;
2023/01/29 05:14:02;;;;;;;3.3;3.2;;;;;;;0.2;100.0;102680;;;;
2023/01/29 05:15:01;;;;;;;3.3;3.2;;;;;;;0.3;100.0;102670;;;;
2023/01/29 05:16:07;;;;;;;3.3;3.2;;;;;;;0.3;100.0;102670;;;;
2023/01/29 05:17:02;;;;;;;3.3;3.2;;;;;;;0.2;100.0;102670;;;;
2023/01/29 05:18:01;;;;;;;3.3;3.2;;;;;;;0.2;100.0;102670;;;;
2023/01/29 05:19:00;;;;;;;3.3;3.2;;;;;;;0.3;100.0;102670;;;;
2023/01/29 05:20:00;;;;;;;3.3;3.2;;;;;;;0.3;100.0;102670;;;;
2023/01/29 05:21:03;;;;;;;3.3;3.2;;;;;;;0.2;100.0;102660;;;;
2023/01/29 05:22:03;;;;;;;3.3;3.2;;;;;;;0.2;100.0;102660;;;;
2023/01/29 05:23:00;;;;;;;3.3;3.2;;;;;;;0.3;100.0;102650;;;;
2023/01/29 05:24:09;;;;;;;3.3;3.2;;;;;;;0.3;100.0;102650;;;;
2023/01/29 05:25:00;;;;;;;3.3;3.2;;;;;;;0.2;100.0;102650;;;;
2023/01/29 05:26:00;;;;;;;3.3;3.2;;;;;;;0.2;100.0;102650;;;;
2023/01/29 05:28:15;;;;;;;3.3;3.2;;;;;;;0.3;100.0;102650;;;;
2023/01/29 05:29:00;;;;;;;3.3;3.2;;;;;;;0.2;100.0;102660;;;;
2023/01/29 05:30:00;;;;;;;3.3;3.2;;;;;;;0.2;100.0;102660;;;;
2023/01/29 05:31:00;;;;;;;3.3;3.2;;;;;;;0.3;100.0;102650;;;;
2023/01/29 05:32:00;;;;;;;3.2;3.1;;;;;;;0.3;100.0;102650;;;;
2023/01/29 05:33:00;;;;;;;3.2;3.1;;;;;;;0.3;100.0;102650;;;;
2023/01/29 05:34:00;;;;;;;3.2;3.1;;;;;;;0.3;100.0;102650;;;;
2023/01/29 05:35:00;;;;;;;3.2;3.1;;;;;;;0.4;100.0;102640;;;;
2023/01/29 05:36:00;;;;;;;3.2;3.1;;;;;;;0.4;100.0;102640;;;;
2023/01/29 05:37:00;;;;;;;3.2;3.1;;;;;;;0.4;100.0;102640;;;;
2023/01/29 05:38:00;;;;;;;3.2;3.1;;;;;;;0.4;100.0;102640;;;;
2023/01/29 05:39:00;;;;;;;3.2;3.1;;;;;;;0.4;100.0;102640;;;;
2023/01/29 05:40:00;;;;;;;3.2;3.1;;;;;;;0.4;100.0;102640;;;;
2023/01/29 05:41:00;;;;;;;3.2;3.1;;;;;;;0.4;100.0;102650;;;;
2023/01/29 05:42:00;;;;;;;3.2;3.1;;;;;;;0.4;100.0;102650;;;;
2023/01/29 05:43:00;;;;;;;3.2;3.1;;;;;;;0.5;100.0;102660;;;;
2023/01/29 05:44:00;;;;;;;3.2;3.1;;;;;;;0.5;100.0;102660;;;;
2023/01/29 05:45:00;;;;;;;3.2;3.1;;;;;;;0.4;100.0;102650;;;;
2023/01/29 05:46:00;;;;;;;3.2;3.1;;;;;;;0.4;100.0;102650;;;;
2023/01/29 05:47:01;;;;;;;3.2;3.1;;;;;;;0.4;100.0;102650;;;;
2023/01/29 05:48:00;;;;;;;3.2;3.1;;;;;;;0.4;100.0;102650;;;;
2023/01/29 05:49:00;;;;;;;3.2;3.1;;;;;;;0.4;100.0;102650;;;;
2023/01/29 05:50:00;;;;;;;3.2;3.1;;;;;;;0.4;100.0;102650;;;;
2023/01/29 05:51:01;;;;;;;3.2;3.1;;;;;;;0.5;100.0;102660;;;;
2023/01/29 05:52:00;;;;;;;3.6;3.5;;;;;;;0.5;100.0;102660;;;;
2023/01/29 05:53:01;;;;;;;3.6;3.5;;;;;;;0.5;100.0;102660;;;;
2023/01/29 05:54:00;;;;;;;3.6;3.5;;;;;;;0.5;100.0;102660;;;;
2023/01/29 05:55:00;;;;;;;3.6;3.5;;;;;;;0.5;100.0;102660;;;;
2023/01/29 05:56:01;;;;;;;3.6;3.5;;;;;;;0.5;100.0;102660;;;;
2023/01/29 05:57:00;;;;;;;3.6;3.5;;;;;;;0.5;100.0;102670;;;;
2023/01/29 05:58:00;;;;;;;3.6;3.5;;;;;;;0.5;100.0;102670;;;;
2023/01/29 05:59:00;;;;;;;3.6;3.5;;;;;;;0.5;100.0;102670;;;;
2023/01/29 06:00:01;;;;;;;3.6;3.5;;;;;;;0.5;100.0;102670;;;;
2023/01/29 06:01:10;;;;;;;3.6;3.5;;;;;;;0.5;100.0;102680;;;;
2023/01/29 06:02:00;;;;;;;3.6;3.5;;;;;;;0.5;100.0;102680;;;;
2023/01/29 06:03:00;;;;;;;3.6;3.5;;;;;;;0.5;100.0;102680;;;;
2023/01/29 06:04:00;;;;;;;3.6;3.5;;;;;;;0.5;100.0;102680;;;;
2023/01/29 06:05:00;;;;;;;3.6;3.5;;;;;;;0.5;100.0;102680;;;;
2023/01/29 06:06:00;;;;;;;3.6;3.5;;;;;;;0.5;100.0;102680;;;;
2023/01/29 06:07:02;;;;;;;3.6;3.5;;;;;;;0.5;100.0;102680;;;;
2023/01/29 06:08:00;;;;;;;3.6;3.5;;;;;;;0.5;100.0;102680;;;;
2023/01/29 06:09:00;;;;;;;3.6;3.5;;;;;;;0.5;100.0;102680;;;;
2023/01/29 06:10:00;;;;;;;3.6;3.5;;;;;;;0.5;100.0;102680;;;;
2023/01/29 06:11:00;;;;;;;3.6;3.5;;;;;;;0.5;100.0;102680;;;;
2023/01/29 06:12:00;;;;;;;3.3;3.2;;;;;;;0.5;100.0;102680;;;;
2023/01/29 06:13:00;;;;;;;3.3;3.2;;;;;;;0.6;100.0;102690;;;;
2023/01/29 06:14:00;;;;;;;3.3;3.2;;;;;;;0.6;100.0;102690;;;;
2023/01/29 06:15:00;;;;;;;3.3;3.2;;;;;;;0.6;100.0;102690;;;;
2023/01/29 06:16:03;;;;;;;3.3;3.2;;;;;;;0.6;100.0;102690;;;;
2023/01/29 06:17:00;;;;;;;3.3;3.2;;;;;;;0.7;100.0;102700;;;;
2023/01/29 06:18:00;;;;;;;3.3;3.2;;;;;;;0.7;100.0;102700;;;;
2023/01/29 06:19:00;;;;;;;3.3;3.2;;;;;;;0.7;100.0;102700;;;;
2023/01/29 06:20:00;;;;;;;3.3;3.2;;;;;;;0.7;100.0;102700;;;;
2023/01/29 06:21:01;;;;;;;3.3;3.2;;;;;;;0.6;100.0;102690;;;;
2023/01/29 06:22:00;;;;;;;3.3;3.2;;;;;;;0.6;100.0;102690;;;;
2023/01/29 06:23:00;;;;;;;3.3;3.2;;;;;;;0.6;100.0;102690;;;;
2023/01/29 06:24:00;;;;;;;3.3;3.2;;;;;;;0.6;100.0;102690;;;;
2023/01/29 06:25:00;;;;;;;3.3;3.2;;;;;;;0.6;100.0;102680;;;;
2023/01/29 06:26:01;;;;;;;3.3;3.2;;;;;;;0.6;100.0;102680;;;;
2023/01/29 06:27:00;;;;;;;3.3;3.2;;;;;;;0.6;100.0;102670;;;;
2023/01/29 06:28:00;;;;;;;3.3;3.2;;;;;;;0.6;100.0;102670;;;;
2023/01/29 06:29:00;;;;;;;3.3;3.2;;;;;;;0.6;100.0;102660;;;;
2023/01/29 06:30:00;;;;;;;3.3;3.2;;;;;;;0.6;100.0;102660;;;;
2023/01/29 06:31:10;;;;;;;3.3;3.2;;;;;;;0.7;100.0;102650;;;;
2023/01/29 06:32:00;;;;;;;3.5;3.4;;;;;;;0.7;100.0;102650;;;;
2023/01/29 06:33:00;;;;;;;3.5;3.4;;;;;;;0.7;100.0;102650;;;;
2023/01/29 06:34:00;;;;;;;3.5;3.4;;;;;;;0.7;100.0;102650;;;;
2023/01/29 06:35:00;;;;;;;3.5;3.4;;;;;;;0.7;100.0;102640;;;;
2023/01/29 06:36:01;;;;;;;3.5;3.4;;;;;;;0.7;100.0;102640;;;;
2023/01/29 06:37:00;;;;;;;3.5;3.4;;;;;;;0.7;100.0;102640;;;;
2023/01/29 06:38:00;;;;;;;3.5;3.4;;;;;;;0.7;100.0;102640;;;;
2023/01/29 06:39:00;;;;;;;3.5;3.4;;;;;;;0.7;100.0;102650;;;;
2023/01/29 06:40:00;;;;;;;3.5;3.4;;;;;;;0.7;100.0;102650;;;;
2023/01/29 06:41:07;;;;;;;3.5;3.4;;;;;;;0.8;100.0;102650;;;;
2023/01/29 06:42:00;;;;;;;3.5;3.4;;;;;;;0.8;100.0;102650;;;;
2023/01/29 06:43:00;;;;;;;3.5;3.4;;;;;;;0.7;100.0;102650;;;;
2023/01/29 06:44:00;;;;;;;3.5;3.4;;;;;;;0.7;100.0;102650;;;;
2023/01/29 06:45:00;;;;;;;3.5;3.4;;;;;;;0.8;100.0;102650;;;;
2023/01/29 06:46:00;;;;;;;3.5;3.4;;;;;;;0.8;100.0;102650;;;;
2023/01/29 06:47:00;;;;;;;3.5;3.4;;;;;;;0.7;100.0;102640;;;;
2023/01/29 06:48:01;;;;;;;3.5;3.4;;;;;;;0.7;100.0;102640;;;;
2023/01/29 06:49:00;;;;;;;3.5;3.4;;;;;;;0.7;100.0;102650;;;;
2023/01/29 06:50:00;;;;;;;3.5;3.4;;;;;;;0.7;100.0;102650;;;;
2023/01/29 06:51:02;;;;;;;3.5;3.4;;;;;;;0.7;100.0;102650;;;;